createdAt,value
2022-09-30T00:00:14.386Z,98863.41
2022-09-30T00:05:18.727Z,98863.53
2022-09-30T00:10:22.018Z,98860.19
2022-09-30T00:15:29.185Z,98867.16
2022-09-30T00:20:33.540Z,98881.03
2022-09-30T00:25:37.899Z,98881.84
2022-09-30T00:30:43.340Z,98881.84
2022-09-30T00:35:47.406Z,98885.28
2022-09-30T00:40:52.473Z,98891.34
2022-09-30T00:46:01.729Z,98881.81
2022-09-30T00:51:08.686Z,98887.94
2022-09-30T00:56:15.249Z,98886.22
2022-09-30T01:01:20.907Z,98887.16
2022-09-30T01:06:25.710Z,98880.28
2022-09-30T01:11:29.394Z,98878.66
2022-09-30T01:16:46.560Z,98884.59
2022-09-30T01:22:13.509Z,98882.03
2022-09-30T01:27:50.310Z,98892.31
2022-09-30T01:33:19.405Z,98884.56
2022-09-30T01:38:29.616Z,98886.25
2022-09-30T01:43:44.786Z,98887.09
2022-09-30T01:48:56.461Z,98893.09
2022-09-30T01:54:04.516Z,98887.91
2022-09-30T01:59:13.652Z,98889.63
2022-09-30T02:04:22.643Z,98888.72
2022-09-30T02:09:30.803Z,98885.22
2022-09-30T02:14:41.106Z,98885.22
2022-09-30T02:20:03.567Z,98882.53
2022-09-30T02:25:09.772Z,98891.16
2022-09-30T02:30:15.101Z,98889.53
2022-09-30T02:35:26.940Z,98884.38
2022-09-30T02:40:37.030Z,98881.75
2022-09-30T02:45:50.391Z,98874.00
2022-09-30T02:51:01.797Z,98879.09
2022-09-30T02:56:18.885Z,98881.75
2022-09-30T03:01:22.366Z,98887.72
2022-09-30T03:06:27.779Z,98891.06
2022-09-30T03:11:32.629Z,98910.97
2022-09-30T03:16:46.291Z,98907.63
2022-09-30T03:22:07.764Z,98892.88
2022-09-30T03:27:24.141Z,98885.78
2022-09-30T03:32:43.600Z,98880.44
2022-09-30T03:37:59.352Z,98876.97
2022-09-30T03:43:07.289Z,98866.72
2022-09-30T03:48:13.277Z,98884.94
2022-09-30T03:53:18.380Z,98878.00
2022-09-30T03:58:23.525Z,98891.00
2022-09-30T04:03:28.600Z,98903.06
2022-09-30T04:08:34.051Z,98904.75
2022-09-30T04:13:37.609Z,98905.72
2022-09-30T04:18:41.788Z,98916.81
2022-09-30T04:23:46.756Z,98920.03
2022-09-30T04:28:50.556Z,98910.28
2022-09-30T04:33:53.983Z,98908.44
2022-09-30T04:38:58.754Z,98916.03
2022-09-30T04:44:06.233Z,98924.38
2022-09-30T04:49:10.276Z,98917.91
2022-09-30T04:54:16.667Z,98923.69
2022-09-30T04:59:20.731Z,98919.69
2022-09-30T05:04:24.201Z,98906.28
2022-09-30T05:09:29.068Z,98904.75
2022-09-30T05:14:33.433Z,98895.66
2022-09-30T05:19:37.508Z,98904.75
2022-09-30T05:24:42.401Z,98905.09
2022-09-30T05:29:46.813Z,98903.88
2022-09-30T05:34:50.104Z,98898.00
2022-09-30T05:39:55.379Z,98892.00
2022-09-30T05:44:58.728Z,98904.84
2022-09-30T05:50:02.707Z,98916.28
2022-09-30T05:55:09.089Z,98915.06
2022-09-30T06:00:13.701Z,98914.69
2022-09-30T06:05:16.795Z,98918.09
2022-09-30T06:10:21.696Z,98917.81
2022-09-30T06:15:25.798Z,98917.63
2022-09-30T06:20:29.828Z,98930.28
2022-09-30T06:25:35.934Z,98937.22
2022-09-30T06:30:40.043Z,98939.13
2022-09-30T06:35:44.500Z,98930.06
2022-09-30T06:40:51.268Z,98917.13
2022-09-30T06:46:06.361Z,98926.41
2022-09-30T06:51:15.470Z,98926.34
2022-09-30T06:56:21.591Z,98931.34
2022-09-30T07:01:26.272Z,98939.13
2022-09-30T07:06:30.321Z,98939.97
2022-09-30T07:11:35.206Z,98939.31
2022-09-30T07:16:40.695Z,98935.84
2022-09-30T07:21:44.842Z,98932.84
2022-09-30T07:26:50.281Z,98937.97
2022-09-30T07:31:55.298Z,98928.78
2022-09-30T07:36:59.585Z,98930.72
2022-09-30T07:42:06.509Z,98931.59
2022-09-30T07:47:11.381Z,98927.84
2022-09-30T07:52:15.100Z,98928.28
2022-09-30T07:57:22.412Z,98930.56
2022-09-30T08:02:25.801Z,98933.94
2022-09-30T08:07:30.057Z,98935.97
2022-09-30T08:12:35.396Z,98924.00
2022-09-30T08:17:39.700Z,98920.56
2022-09-30T08:22:42.997Z,98929.19
2022-09-30T08:27:48.482Z,98929.97
2022-09-30T08:32:51.853Z,98920.75
2022-09-30T08:37:56.346Z,98911.94
2022-09-30T08:43:17.428Z,98899.28
2022-09-30T08:48:35.795Z,98907.59
2022-09-30T08:53:43.598Z,98910.38
2022-09-30T08:58:52.399Z,98900.44
2022-09-30T09:03:56.335Z,98900.91
2022-09-30T09:09:21.498Z,98894.41
2022-09-30T09:14:40.740Z,98894.25
2022-09-30T09:19:49.660Z,98891.28
2022-09-30T09:24:55.313Z,98897.44
2022-09-30T09:30:08.396Z,98900.28
2022-09-30T09:35:21.198Z,98896.41
2022-09-30T09:40:35.179Z,98891.50
2022-09-30T09:45:47.134Z,98891.00
2022-09-30T09:51:04.172Z,98886.88
2022-09-30T09:56:19.830Z,98893.88
2022-09-30T10:01:34.135Z,98882.44
2022-09-30T10:06:46.501Z,98891.44
2022-09-30T10:11:49.833Z,98892.19
2022-09-30T10:16:59.755Z,98892.91
2022-09-30T10:22:20.711Z,98901.19
2022-09-30T10:27:32.720Z,98891.00
2022-09-30T10:32:37.761Z,98879.25
2022-09-30T10:37:52.758Z,98892.50
2022-09-30T10:42:57.062Z,98891.88
2022-09-30T10:48:05.399Z,98886.03
2022-09-30T10:53:17.163Z,98896.50
2022-09-30T10:58:32.428Z,98883.75
2022-09-30T11:03:46.705Z,98891.06
2022-09-30T11:08:58.535Z,98887.22
2022-09-30T11:14:07.059Z,98889.72
2022-09-30T11:19:23.358Z,98899.22
2022-09-30T11:24:35.703Z,98888.53
2022-09-30T11:29:53.499Z,98900.41
2022-09-30T11:35:10.303Z,98888.28
2022-09-30T11:40:32.777Z,98901.84
2022-09-30T11:45:57.832Z,98906.06
2022-09-30T11:51:17.995Z,98907.94
2022-09-30T11:56:34.846Z,98917.81
2022-09-30T12:01:45.603Z,98911.38
2022-09-30T12:06:56.405Z,98910.72
2022-09-30T12:12:05.092Z,98903.53
2022-09-30T12:17:21.299Z,98911.31
2022-09-30T12:22:31.281Z,98911.88
2022-09-30T12:27:41.497Z,98916.63
2022-09-30T12:33:39.169Z,98920.06
2022-09-30T12:39:00.405Z,98918.53
2022-09-30T12:44:41.114Z,98910.78
2022-09-30T12:49:46.079Z,98926.72
2022-09-30T12:54:55.380Z,98924.97
2022-09-30T13:00:04.686Z,98931.94
2022-09-30T13:05:54.927Z,98923.78
2022-09-30T13:11:05.993Z,98917.72
2022-09-30T13:16:12.149Z,98932.34
2022-09-30T13:21:26.025Z,98940.03
2022-09-30T13:26:37.472Z,98945.25
2022-09-30T13:32:06.334Z,98947.38
2022-09-30T13:37:40.570Z,98945.81
2022-09-30T13:42:57.285Z,98963.44
2022-09-30T13:48:11.982Z,98967.06
2022-09-30T13:53:23.655Z,98972.91
2022-09-30T13:59:05.111Z,98978.28
2022-09-30T14:04:28.324Z,98980.00
2022-09-30T14:09:54.395Z,98978.88
2022-09-30T14:15:23.540Z,98978.94
2022-09-30T14:20:44.755Z,98984.16
2022-09-30T14:25:59.283Z,98995.09
2022-09-30T14:31:13.353Z,98992.81
2022-09-30T14:36:20.145Z,98991.59
2022-09-30T14:41:26.202Z,98996.72
2022-09-30T14:46:37.094Z,99006.56
2022-09-30T14:51:45.345Z,99007.72
2022-09-30T14:56:50.809Z,99003.97
2022-09-30T15:02:01.720Z,99020.69
2022-09-30T15:07:12.437Z,99030.34
2022-09-30T15:12:19.997Z,99036.56
2022-09-30T15:17:29.051Z,99028.78
2022-09-30T15:22:33.956Z,99039.59
2022-09-30T15:27:39.918Z,99053.03
2022-09-30T15:32:50.357Z,99042.72
2022-09-30T15:38:07.593Z,99046.38
2022-09-30T15:43:17.005Z,99054.28
2022-09-30T15:48:38.981Z,99049.44
2022-09-30T15:53:50.478Z,99059.34
2022-09-30T15:59:01.423Z,99050.25
2022-09-30T16:04:14.452Z,99043.38
2022-09-30T16:09:29.437Z,99065.09
2022-09-30T16:14:37.776Z,99063.59
2022-09-30T16:19:45.197Z,99068.84
2022-09-30T16:24:50.675Z,99062.97
2022-09-30T16:29:55.734Z,99063.13
2022-09-30T16:35:03.971Z,99064.75
2022-09-30T16:40:20.448Z,99064.63
2022-09-30T16:45:26.592Z,99072.81
2022-09-30T16:50:41.360Z,99085.88
2022-09-30T16:55:46.223Z,99085.94
2022-09-30T17:00:51.061Z,99087.97
2022-09-30T17:05:58.067Z,99092.09
2022-09-30T17:11:02.228Z,99100.78
2022-09-30T17:16:07.072Z,99101.78
2022-09-30T17:21:13.771Z,99101.75
2022-09-30T17:26:18.697Z,99102.72
2022-09-30T17:31:23.881Z,99101.97
2022-09-30T17:36:30.460Z,99107.03
2022-09-30T17:41:52.480Z,99108.00
2022-09-30T17:47:01.712Z,99092.38
2022-09-30T17:52:08.468Z,99092.81
2022-09-30T17:57:13.359Z,99092.81
2022-09-30T18:02:18.502Z,99097.25
2022-09-30T18:07:26.952Z,99094.84
2022-09-30T18:12:34.699Z,99095.75
2022-09-30T18:17:46.993Z,99108.84
2022-09-30T18:22:52.508Z,99119.19
2022-09-30T18:28:01.543Z,99125.56
2022-09-30T18:33:08.243Z,99127.03
2022-09-30T18:38:15.502Z,99127.00
2022-09-30T18:43:22.730Z,99126.31
2022-09-30T18:48:28.192Z,99132.31
2022-09-30T18:53:34.736Z,99130.47
2022-09-30T18:58:40.317Z,99130.75
2022-09-30T19:03:44.701Z,99141.13
2022-09-30T19:08:51.283Z,99140.00
2022-09-30T19:13:56.970Z,99144.09
2022-09-30T19:19:05.557Z,99138.66
2022-09-30T19:24:14.153Z,99146.28
2022-09-30T19:29:19.713Z,99152.53
2022-09-30T19:34:31.714Z,99147.34
2022-09-30T19:39:45.576Z,99163.91
2022-09-30T19:44:49.862Z,99165.81
2022-09-30T19:49:54.489Z,99164.97
2022-09-30T19:55:11.868Z,99170.25
2022-09-30T20:00:19.912Z,99155.84
2022-09-30T20:05:25.141Z,99161.09
2022-09-30T20:10:30.200Z,99172.72
2022-09-30T20:15:52.719Z,99179.00
2022-09-30T20:20:58.132Z,99167.19
2022-09-30T20:26:03.848Z,99187.09
2022-09-30T20:31:10.304Z,99175.00
2022-09-30T20:36:14.419Z,99176.94
2022-09-30T20:41:20.271Z,99185.63
2022-09-30T20:46:26.713Z,99180.50
2022-09-30T20:51:32.453Z,99186.56
2022-09-30T20:57:05.361Z,99184.78
2022-09-30T21:02:02.278Z,99193.63
2022-09-30T21:07:07.693Z,99185.91
2022-09-30T21:12:14.659Z,99191.28
2022-09-30T21:17:18.970Z,99199.16
2022-09-30T21:22:22.395Z,99154.22
2022-09-30T21:27:28.039Z,99186.13
2022-09-30T21:32:31.373Z,99190.41
2022-09-30T21:37:35.518Z,99190.69
2022-09-30T21:42:40.369Z,99194.22
2022-09-30T21:47:44.474Z,99183.97
2022-09-30T21:52:49.337Z,99179.56
2022-09-30T21:57:54.911Z,99182.91
2022-09-30T22:02:59.327Z,99183.78
2022-09-30T22:08:03.834Z,99187.50
2022-09-30T22:13:08.612Z,99188.16
2022-09-30T22:18:13.681Z,99176.78
2022-09-30T22:23:17.015Z,99191.63
2022-09-30T22:28:22.710Z,99196.97
2022-09-30T22:33:43.569Z,99197.75
2022-09-30T22:38:47.707Z,99185.63
2022-09-30T22:43:52.434Z,99185.72
2022-09-30T22:48:56.562Z,99182.13
2022-09-30T22:54:01.221Z,99188.09
2022-09-30T22:59:07.288Z,99188.09
2022-09-30T23:04:10.589Z,99194.28
2022-09-30T23:09:13.966Z,99187.31
2022-09-30T23:14:18.705Z,99190.69
2022-09-30T23:19:22.969Z,99184.66
2022-09-30T23:24:26.300Z,99183.00
2022-09-30T23:29:31.846Z,99178.53
2022-09-30T23:34:35.130Z,99184.13
2022-09-30T23:39:39.276Z,99171.13
2022-09-30T23:44:44.130Z,99171.88
2022-09-30T23:49:48.330Z,99173.69
2022-09-30T23:54:51.831Z,99179.75
2022-09-30T23:59:57.844Z,99182.38
